Maersk Nimes — VRFO7 — position and weather

sailwx.info

Track history (hours):
 
Tides and Currents Weather Stations Pressure Air Temp Water Temp Dewpoint Dewpoint Depression Visibility Wind Speed Wind Dir Waves Ship Positions

Maersk Nimes

Last reported at 2016-Aug-20 00:00 UTC. Time now 2016-Aug-30 22:36 UTC.
Position N 20°00' W 066°00'.
Warning: this ship's position is 10 days out of date.

Length 210 m; draft 11.4 m.

Type: Cargo ship. MMSI: 477559200.

Wind from 060 at 11 knots

Waves 1.0 meters (3 feet), 4 second period

Barometer 1018.0 mb
Air temperature 29.0 ° C
Visibility: greater than 10.8 NM
Dewpoint 26.2 ° C
Water temperature 29.0 ° C

Date/timePositionNaut miles runAvg speedWind from/ knotsBaromVisibWave heightAir tempDewpointWater temp
2016-Aug-20 00:00N 20°00' W 066°00'40016.6 060 / 111018.010.8 1.029.026.229.0
2016-Aug-19 00:00N 23°30' W 059°54'70816.9 090 / 101021.010.8 0.534.030.029.0
2016-Aug-17 06:00N 29°36' W 048°36'20216.8 040 / 91022.010.8 0.526.023.126.0
2016-Aug-16 18:00N 31°24' W 045°18'72416.5 300 / 81024.010.8 0.529.024.827.0
2016-Aug-14 22:09N 37°40' W 032°47'3116.3
2016-Aug-14 20:14N 37°56' W 032°13'1116.4
2016-Aug-14 19:34N 38°02' W 032°01'1616.4
2016-Aug-14 18:33N 38°10' W 031°43'1716.6
2016-Aug-14 17:33N 38°19' W 031°25'1616.3
2016-Aug-14 16:34N 38°28' W 031°07'1616.4
2016-Aug-14 15:34N 38°36' W 030°49'1616.3
2016-Aug-14 14:33N 38°45' W 030°32'1616.4
2016-Aug-14 13:33N 38°54' W 030°14'1616.2
2016-Aug-14 12:33N 39°02' W 029°56'1120.2
2016-Aug-14 12:00N 39°06' W 029°42'512.1 230 / 161024.0 5.4 1.525.018.823.0
2016-Aug-14 11:34N 39°10' W 029°38'1615.8
2016-Aug-14 10:34N 39°19' W 029°21'1616.0
2016-Aug-14 09:33N 39°27' W 029°03'1615.9
2016-Aug-14 08:34N 39°35' W 028°46'1616.1
2016-Aug-14 07:33N 39°44' W 028°28'1616.1
2016-Aug-14 06:34N 39°52' W 028°10'3316.4
2016-Aug-14 04:33N 40°10' W 027°34'1716.6
2016-Aug-14 03:33N 40°19' W 027°16'1716.8
2016-Aug-14 02:34N 40°27' W 026°56'1716.7
2016-Aug-14 01:33N 40°35' W 026°37'1816.5
2016-Aug-14 00:28N 40°45' W 026°17'5016.6
2016-Aug-13 21:25N 41°12' W 025°21'3116.5
2016-Aug-13 19:33N 41°28' W 024°45'1916.5
2016-Aug-13 18:26N 41°37' W 024°24'1023.4
2016-Aug-13 18:00N 41°42' W 024°12'10417.3 240 / 111026.0 5.4 0.524.021.023.0
2016-Aug-13 12:00N 42°36' W 022°12'38216.6 240 / 111026.0 5.4 1.524.019.422.0
2016-Aug-12 13:00N 45°54' W 014°36'13319.0 070 / 81025.010.8 1.023.019.923.0
2016-Aug-12 06:00N 47°06' W 011°54'22516.7 160 / 91028.0 2.2 0.517.013.516.0
2016-Aug-11 16:34N 49°04' W 007°08'1717.3
2016-Aug-11 15:33N 49°13' W 006°45'1717.6
2016-Aug-11 14:33N 49°22' W 006°22'1817.6
2016-Aug-11 13:33N 49°27' W 005°56'1717.4
2016-Aug-11 12:33N 49°32' W 005°30'1716.6
2016-Aug-11 11:34N 49°34' W 005°05'1716.6
2016-Aug-11 10:32N 49°39' W 004°40'1616.7
2016-Aug-11 09:33N 49°45' W 004°16'1716.9
2016-Aug-11 08:33N 49°49' W 003°51'1717.4
2016-Aug-11 07:33N 49°54' W 003°25'1818.1
2016-Aug-11 06:34N 49°59' W 002°58'1818.4
2016-Aug-11 05:34N 50°04' W 002°30'1818.2
2016-Aug-11 04:33N 50°09' W 002°03'5016.4
2016-Aug-11 01:32N 50°21' W 000°48'1515.8
2016-Aug-11 00:33N 50°25' W 000°24'1717.1
2016-Aug-10 23:33N 50°29' E 000°02'1918.4
2016-Aug-10 22:33N 50°35' E 000°29'3818.9
2016-Aug-10 20:33N 50°58' E 001°16'1818.3
2016-Aug-10 19:33N 51°10' E 001°39'1717.4
2016-Aug-10 18:33N 51°23' E 001°57'1615.8
2016-Aug-10 17:33N 51°21' E 002°22'1514.6
2016-Aug-10 16:33N 51°22' E 002°46'1212.4
2016-Aug-10 15:33N 51°24' E 003°05'1514.5
2016-Aug-10 14:34N 51°25' E 003°28'1110.9
2016-Aug-10 13:33N 51°22' E 003°45'1110.8
2016-Aug-10 12:33N 51°24' E 004°02'9 9.1
2016-Aug-10 11:34N 51°21' E 004°16'0 0.2
2016-Aug-10 10:33N 51°21' E 004°16'0 0.0
2016-Aug-10 09:34N 51°21' E 004°16'0 0.0
2016-Aug-10 08:34N 51°21' E 004°16'0 0.0
2016-Aug-10 07:34N 51°21' E 004°16'0 0.0
2016-Aug-10 06:33N 51°21' E 004°16'0 0.0
2016-Aug-10 05:34N 51°21' E 004°16'0 0.0
2016-Aug-10 04:34N 51°21' E 004°16'0 0.0
2016-Aug-10 03:34N 51°21' E 004°16'0 0.4
2016-Aug-10 02:33N 51°21' E 004°15'9 8.9
2016-Aug-10 01:34N 51°24' E 004°02'1010.5
2016-Aug-10 00:34N 51°22' E 003°46'  
Track history (hours):
 
Tides and Currents Weather Stations Pressure Air Temp Water Temp Dewpoint Dewpoint Depression Visibility Wind Speed Wind Dir Waves Ship Positions

Maersk Nimes

Last reported at 2016-Aug-20 00:00 UTC. Time now 2016-Aug-30 22:36 UTC.
Position N 20°00' W 066°00'.
Warning: this ship's position is 10 days out of date.

Length 210 m; draft 11.4 m.

Type: Cargo ship. MMSI: 477559200.

Wind from 060 at 11 knots

Waves 1.0 meters (3 feet), 4 second period

Barometer 1018.0 mb
Air temperature 29.0 ° C
Visibility: greater than 10.8 NM
Dewpoint 26.2 ° C
Water temperature 29.0 ° C

Date/timePositionNaut miles runAvg speedWind from/ knotsBaromVisibWave heightAir tempDewpointWater temp
2016-Aug-20 00:00N 20°00' W 066°00'40016.6 060 / 111018.010.8 1.029.026.229.0
2016-Aug-19 00:00N 23°30' W 059°54'70816.9 090 / 101021.010.8 0.534.030.029.0
2016-Aug-17 06:00N 29°36' W 048°36'20216.8 040 / 91022.010.8 0.526.023.126.0
2016-Aug-16 18:00N 31°24' W 045°18'72416.5 300 / 81024.010.8 0.529.024.827.0
2016-Aug-14 22:09N 37°40' W 032°47'3116.3
2016-Aug-14 20:14N 37°56' W 032°13'1116.4
2016-Aug-14 19:34N 38°02' W 032°01'1616.4
2016-Aug-14 18:33N 38°10' W 031°43'1716.6
2016-Aug-14 17:33N 38°19' W 031°25'1616.3
2016-Aug-14 16:34N 38°28' W 031°07'1616.4
2016-Aug-14 15:34N 38°36' W 030°49'1616.3
2016-Aug-14 14:33N 38°45' W 030°32'1616.4
2016-Aug-14 13:33N 38°54' W 030°14'1616.2
2016-Aug-14 12:33N 39°02' W 029°56'1120.2
2016-Aug-14 12:00N 39°06' W 029°42'512.1 230 / 161024.0 5.4 1.525.018.823.0
2016-Aug-14 11:34N 39°10' W 029°38'1615.8
2016-Aug-14 10:34N 39°19' W 029°21'1616.0
2016-Aug-14 09:33N 39°27' W 029°03'1615.9
2016-Aug-14 08:34N 39°35' W 028°46'1616.1
2016-Aug-14 07:33N 39°44' W 028°28'1616.1
2016-Aug-14 06:34N 39°52' W 028°10'3316.4
2016-Aug-14 04:33N 40°10' W 027°34'1716.6
2016-Aug-14 03:33N 40°19' W 027°16'1716.8
2016-Aug-14 02:34N 40°27' W 026°56'1716.7
2016-Aug-14 01:33N 40°35' W 026°37'1816.5
2016-Aug-14 00:28N 40°45' W 026°17'5016.6
2016-Aug-13 21:25N 41°12' W 025°21'3116.5
2016-Aug-13 19:33N 41°28' W 024°45'1916.5
2016-Aug-13 18:26N 41°37' W 024°24'1023.4
2016-Aug-13 18:00N 41°42' W 024°12'10417.3 240 / 111026.0 5.4 0.524.021.023.0
2016-Aug-13 12:00N 42°36' W 022°12'38216.6 240 / 111026.0 5.4 1.524.019.422.0
2016-Aug-12 13:00N 45°54' W 014°36'13319.0 070 / 81025.010.8 1.023.019.923.0
2016-Aug-12 06:00N 47°06' W 011°54'22516.7 160 / 91028.0 2.2 0.517.013.516.0
2016-Aug-11 16:34N 49°04' W 007°08'1717.3
2016-Aug-11 15:33N 49°13' W 006°45'1717.6
2016-Aug-11 14:33N 49°22' W 006°22'1817.6
2016-Aug-11 13:33N 49°27' W 005°56'1717.4
2016-Aug-11 12:33N 49°32' W 005°30'1716.6
2016-Aug-11 11:34N 49°34' W 005°05'1716.6
2016-Aug-11 10:32N 49°39' W 004°40'1616.7
2016-Aug-11 09:33N 49°45' W 004°16'1716.9
2016-Aug-11 08:33N 49°49' W 003°51'1717.4
2016-Aug-11 07:33N 49°54' W 003°25'1818.1
2016-Aug-11 06:34N 49°59' W 002°58'1818.4
2016-Aug-11 05:34N 50°04' W 002°30'1818.2
2016-Aug-11 04:33N 50°09' W 002°03'5016.4
2016-Aug-11 01:32N 50°21' W 000°48'1515.8
2016-Aug-11 00:33N 50°25' W 000°24'1717.1
2016-Aug-10 23:33N 50°29' E 000°02'1918.4
2016-Aug-10 22:33N 50°35' E 000°29'3818.9
2016-Aug-10 20:33N 50°58' E 001°16'1818.3
2016-Aug-10 19:33N 51°10' E 001°39'1717.4
2016-Aug-10 18:33N 51°23' E 001°57'1615.8
2016-Aug-10 17:33N 51°21' E 002°22'1514.6
2016-Aug-10 16:33N 51°22' E 002°46'1212.4
2016-Aug-10 15:33N 51°24' E 003°05'1514.5
2016-Aug-10 14:34N 51°25' E 003°28'1110.9
2016-Aug-10 13:33N 51°22' E 003°45'1110.8
2016-Aug-10 12:33N 51°24' E 004°02'9 9.1
2016-Aug-10 11:34N 51°21' E 004°16'0 0.2
2016-Aug-10 10:33N 51°21' E 004°16'0 0.0
2016-Aug-10 09:34N 51°21' E 004°16'0 0.0
2016-Aug-10 08:34N 51°21' E 004°16'0 0.0
2016-Aug-10 07:34N 51°21' E 004°16'0 0.0
2016-Aug-10 06:33N 51°21' E 004°16'0 0.0
2016-Aug-10 05:34N 51°21' E 004°16'0 0.0
2016-Aug-10 04:34N 51°21' E 004°16'0 0.0
2016-Aug-10 03:34N 51°21' E 004°16'0 0.4
2016-Aug-10 02:33N 51°21' E 004°15'9 8.9
2016-Aug-10 01:34N 51°24' E 004°02'1010.5
2016-Aug-10 00:34N 51°22' E 003°46'  

Dump ship's entire track history